sensor_id;sensor_type;location;lat;lon;timestamp;temperature;humidity
74458;SHT31;62896;51.032;3.712;2024-03-06T00:01:48;7.6;94
74458;SHT31;62896;51.032;3.712;2024-03-06T00:05:08;7.6;94
74458;SHT31;62896;51.032;3.712;2024-03-06T00:08:28;7.5;94
74458;SHT31;62896;51.032;3.712;2024-03-06T00:11:48;7.5;94
74458;SHT31;62896;51.032;3.712;2024-03-06T00:15:08;7.5;94
74458;SHT31;62896;51.032;3.712;2024-03-06T00:18:28;7.4;94
74458;SHT31;62896;51.032;3.712;2024-03-06T00:21:48;7.4;94
74458;SHT31;62896;51.032;3.712;2024-03-06T00:25:08;7.4;94
74458;SHT31;62896;51.032;3.712;2024-03-06T00:28:28;7.3;94
74458;SHT31;62896;51.032;3.712;2024-03-06T00:31:48;7.3;94
74458;SHT31;62896;51.032;3.712;2024-03-06T00:35:08;7.3;94
74458;SHT31;62896;51.032;3.712;2024-03-06T00:38:28;7.3;94
74458;SHT31;62896;51.032;3.712;2024-03-06T00:41:48;7.3;94
74458;SHT31;62896;51.032;3.712;2024-03-06T00:45:09;7.3;94
74458;SHT31;62896;51.032;3.712;2024-03-06T00:48:28;7.3;94
74458;SHT31;62896;51.032;3.712;2024-03-06T00:51:48;7.3;94
74458;SHT31;62896;51.032;3.712;2024-03-06T00:55:09;7.3;94
74458;SHT31;62896;51.032;3.712;2024-03-06T00:58:28;7.3;94
74458;SHT31;62896;51.032;3.712;2024-03-06T01:01:49;7.3;94
74458;SHT31;62896;51.032;3.712;2024-03-06T01:05:08;7.3;94
74458;SHT31;62896;51.032;3.712;2024-03-06T01:08:28;7.2;95
74458;SHT31;62896;51.032;3.712;2024-03-06T01:11:48;7.2;95
74458;SHT31;62896;51.032;3.712;2024-03-06T01:15:09;7.2;95
74458;SHT31;62896;51.032;3.712;2024-03-06T01:18:28;7;95
74458;SHT31;62896;51.032;3.712;2024-03-06T01:21:48;7;95
74458;SHT31;62896;51.032;3.712;2024-03-06T01:25:08;7;95
74458;SHT31;62896;51.032;3.712;2024-03-06T01:28:28;6.9;95
74458;SHT31;62896;51.032;3.712;2024-03-06T01:31:48;6.9;95
74458;SHT31;62896;51.032;3.712;2024-03-06T01:35:09;6.9;95
74458;SHT31;62896;51.032;3.712;2024-03-06T01:38:29;6.7;96
74458;SHT31;62896;51.032;3.712;2024-03-06T01:41:49;6.7;96
74458;SHT31;62896;51.032;3.712;2024-03-06T01:45:09;6.7;96
74458;SHT31;62896;51.032;3.712;2024-03-06T01:48:28;6.5;96
74458;SHT31;62896;51.032;3.712;2024-03-06T01:51:49;6.5;96
74458;SHT31;62896;51.032;3.712;2024-03-06T01:55:09;6.5;96
74458;SHT31;62896;51.032;3.712;2024-03-06T01:58:29;6.3;97
74458;SHT31;62896;51.032;3.712;2024-03-06T02:01:49;6.3;97
74458;SHT31;62896;51.032;3.712;2024-03-06T02:05:09;6.3;97
74458;SHT31;62896;51.032;3.712;2024-03-06T02:08:29;6.1;97
74458;SHT31;62896;51.032;3.712;2024-03-06T02:11:49;6.1;97
74458;SHT31;62896;51.032;3.712;2024-03-06T02:15:09;6.1;97
74458;SHT31;62896;51.032;3.712;2024-03-06T02:18:29;5.8;97
74458;SHT31;62896;51.032;3.712;2024-03-06T02:21:49;5.8;97
74458;SHT31;62896;51.032;3.712;2024-03-06T02:25:09;5.8;97
74458;SHT31;62896;51.032;3.712;2024-03-06T02:28:29;5.7;98
74458;SHT31;62896;51.032;3.712;2024-03-06T02:31:49;5.7;98
74458;SHT31;62896;51.032;3.712;2024-03-06T02:35:09;5.7;98
74458;SHT31;62896;51.032;3.712;2024-03-06T02:38:29;5.6;98
74458;SHT31;62896;51.032;3.712;2024-03-06T02:41:49;5.6;98
74458;SHT31;62896;51.032;3.712;2024-03-06T02:45:09;5.6;98
74458;SHT31;62896;51.032;3.712;2024-03-06T02:48:29;5.5;98
74458;SHT31;62896;51.032;3.712;2024-03-06T02:51:49;5.5;98
74458;SHT31;62896;51.032;3.712;2024-03-06T02:55:09;5.5;98
74458;SHT31;62896;51.032;3.712;2024-03-06T02:58:29;5.4;99
74458;SHT31;62896;51.032;3.712;2024-03-06T03:01:49;5.4;99
74458;SHT31;62896;51.032;3.712;2024-03-06T03:05:09;5.4;99
74458;SHT31;62896;51.032;3.712;2024-03-06T03:08:29;5.3;99
74458;SHT31;62896;51.032;3.712;2024-03-06T03:11:49;5.3;99
74458;SHT31;62896;51.032;3.712;2024-03-06T03:15:09;5.3;99
74458;SHT31;62896;51.032;3.712;2024-03-06T03:18:29;5.2;99
74458;SHT31;62896;51.032;3.712;2024-03-06T03:21:49;5.2;99
74458;SHT31;62896;51.032;3.712;2024-03-06T03:25:09;5.2;99
74458;SHT31;62896;51.032;3.712;2024-03-06T03:28:29;5.3;99
74458;SHT31;62896;51.032;3.712;2024-03-06T03:31:49;5.3;99
74458;SHT31;62896;51.032;3.712;2024-03-06T03:35:09;5.3;99
74458;SHT31;62896;51.032;3.712;2024-03-06T03:38:29;5.2;99
74458;SHT31;62896;51.032;3.712;2024-03-06T03:41:49;5.2;99
74458;SHT31;62896;51.032;3.712;2024-03-06T03:45:09;5.2;99
74458;SHT31;62896;51.032;3.712;2024-03-06T03:48:29;5;99
74458;SHT31;62896;51.032;3.712;2024-03-06T03:51:49;5;99
74458;SHT31;62896;51.032;3.712;2024-03-06T03:55:09;5;99
74458;SHT31;62896;51.032;3.712;2024-03-06T03:58:29;4.9;99
74458;SHT31;62896;51.032;3.712;2024-03-06T04:01:49;4.9;99
74458;SHT31;62896;51.032;3.712;2024-03-06T04:05:09;4.9;99
74458;SHT31;62896;51.032;3.712;2024-03-06T04:08:29;4.9;100
74458;SHT31;62896;51.032;3.712;2024-03-06T04:11:49;4.9;100
74458;SHT31;62896;51.032;3.712;2024-03-06T04:15:09;4.9;100
74458;SHT31;62896;51.032;3.712;2024-03-06T04:18:29;4.7;99
74458;SHT31;62896;51.032;3.712;2024-03-06T04:21:49;4.7;99
74458;SHT31;62896;51.032;3.712;2024-03-06T04:25:09;4.7;99
74458;SHT31;62896;51.032;3.712;2024-03-06T04:28:29;4.6;99
74458;SHT31;62896;51.032;3.712;2024-03-06T04:31:49;4.6;99
74458;SHT31;62896;51.032;3.712;2024-03-06T04:35:09;4.6;99
74458;SHT31;62896;51.032;3.712;2024-03-06T04:38:29;4.4;99
74458;SHT31;62896;51.032;3.712;2024-03-06T04:41:49;4.4;99
74458;SHT31;62896;51.032;3.712;2024-03-06T04:45:10;4.4;99
74458;SHT31;62896;51.032;3.712;2024-03-06T04:48:29;4.4;100
74458;SHT31;62896;51.032;3.712;2024-03-06T04:51:49;4.4;100
74458;SHT31;62896;51.032;3.712;2024-03-06T04:55:09;4.4;100
74458;SHT31;62896;51.032;3.712;2024-03-06T04:58:29;4.3;100
74458;SHT31;62896;51.032;3.712;2024-03-06T05:01:49;4.3;100
74458;SHT31;62896;51.032;3.712;2024-03-06T05:05:09;4.3;100
74458;SHT31;62896;51.032;3.712;2024-03-06T05:08:29;4.2;100
74458;SHT31;62896;51.032;3.712;2024-03-06T05:11:49;4.2;100
74458;SHT31;62896;51.032;3.712;2024-03-06T05:15:09;4.2;100
74458;SHT31;62896;51.032;3.712;2024-03-06T05:18:29;4.1;100
74458;SHT31;62896;51.032;3.712;2024-03-06T05:21:49;4.1;100
74458;SHT31;62896;51.032;3.712;2024-03-06T05:25:09;4.1;100
74458;SHT31;62896;51.032;3.712;2024-03-06T05:28:29;4.1;100
74458;SHT31;62896;51.032;3.712;2024-03-06T05:31:49;4.1;100
74458;SHT31;62896;51.032;3.712;2024-03-06T05:35:09;4.1;100
74458;SHT31;62896;51.032;3.712;2024-03-06T05:38:29;4;100
74458;SHT31;62896;51.032;3.712;2024-03-06T05:41:49;4;100
74458;SHT31;62896;51.032;3.712;2024-03-06T05:45:09;4;100
74458;SHT31;62896;51.032;3.712;2024-03-06T05:48:29;3.9;100
74458;SHT31;62896;51.032;3.712;2024-03-06T05:51:49;3.9;100
74458;SHT31;62896;51.032;3.712;2024-03-06T05:55:09;3.9;100
74458;SHT31;62896;51.032;3.712;2024-03-06T05:58:29;3.9;100
74458;SHT31;62896;51.032;3.712;2024-03-06T06:01:49;3.9;100
74458;SHT31;62896;51.032;3.712;2024-03-06T06:05:09;3.9;100
74458;SHT31;62896;51.032;3.712;2024-03-06T06:08:29;3.9;100
74458;SHT31;62896;51.032;3.712;2024-03-06T06:11:49;3.9;100
74458;SHT31;62896;51.032;3.712;2024-03-06T06:15:09;3.9;100
74458;SHT31;62896;51.032;3.712;2024-03-06T06:18:29;3.9;100
74458;SHT31;62896;51.032;3.712;2024-03-06T06:21:49;3.9;100
74458;SHT31;62896;51.032;3.712;2024-03-06T06:25:09;3.9;100
74458;SHT31;62896;51.032;3.712;2024-03-06T06:28:29;3.9;100
74458;SHT31;62896;51.032;3.712;2024-03-06T06:31:49;3.9;100
74458;SHT31;62896;51.032;3.712;2024-03-06T06:35:09;3.9;100
74458;SHT31;62896;51.032;3.712;2024-03-06T06:38:29;3.9;100
74458;SHT31;62896;51.032;3.712;2024-03-06T06:41:49;3.9;100
74458;SHT31;62896;51.032;3.712;2024-03-06T06:45:09;3.9;100
74458;SHT31;62896;51.032;3.712;2024-03-06T06:48:29;4;100
74458;SHT31;62896;51.032;3.712;2024-03-06T06:51:49;4;100
74458;SHT31;62896;51.032;3.712;2024-03-06T06:55:09;4;100
74458;SHT31;62896;51.032;3.712;2024-03-06T06:58:29;4.2;100
74458;SHT31;62896;51.032;3.712;2024-03-06T07:01:49;4.2;100
74458;SHT31;62896;51.032;3.712;2024-03-06T07:05:09;4.2;100
74458;SHT31;62896;51.032;3.712;2024-03-06T07:08:29;4.7;100
74458;SHT31;62896;51.032;3.712;2024-03-06T07:11:49;4.7;100
74458;SHT31;62896;51.032;3.712;2024-03-06T07:15:09;4.7;100
74458;SHT31;62896;51.032;3.712;2024-03-06T07:18:29;5.1;100
74458;SHT31;62896;51.032;3.712;2024-03-06T07:21:49;5.1;100
74458;SHT31;62896;51.032;3.712;2024-03-06T07:25:09;5.1;100
74458;SHT31;62896;51.032;3.712;2024-03-06T07:28:29;5.5;99
74458;SHT31;62896;51.032;3.712;2024-03-06T07:31:49;5.5;99
74458;SHT31;62896;51.032;3.712;2024-03-06T07:35:09;5.5;99
74458;SHT31;62896;51.032;3.712;2024-03-06T07:38:29;5.7;98
74458;SHT31;62896;51.032;3.712;2024-03-06T07:41:49;5.7;98
74458;SHT31;62896;51.032;3.712;2024-03-06T07:45:09;5.7;98
74458;SHT31;62896;51.032;3.712;2024-03-06T07:48:29;5.9;98
74458;SHT31;62896;51.032;3.712;2024-03-06T07:51:49;5.9;98
74458;SHT31;62896;51.032;3.712;2024-03-06T07:55:09;5.9;98
74458;SHT31;62896;51.032;3.712;2024-03-06T07:58:29;6.2;99
74458;SHT31;62896;51.032;3.712;2024-03-06T08:01:49;6.2;99
74458;SHT31;62896;51.032;3.712;2024-03-06T08:05:09;6.2;99
74458;SHT31;62896;51.032;3.712;2024-03-06T08:08:29;6.4;99
74458;SHT31;62896;51.032;3.712;2024-03-06T08:11:49;6.4;99
74458;SHT31;62896;51.032;3.712;2024-03-06T08:15:10;6.4;99
74458;SHT31;62896;51.032;3.712;2024-03-06T08:18:29;6.6;98
74458;SHT31;62896;51.032;3.712;2024-03-06T08:21:49;6.6;98
74458;SHT31;62896;51.032;3.712;2024-03-06T08:25:09;6.6;98
74458;SHT31;62896;51.032;3.712;2024-03-06T08:28:29;6.6;98
74458;SHT31;62896;51.032;3.712;2024-03-06T08:31:49;6.6;98
74458;SHT31;62896;51.032;3.712;2024-03-06T08:35:09;6.6;98
74458;SHT31;62896;51.032;3.712;2024-03-06T08:38:29;6.8;98
74458;SHT31;62896;51.032;3.712;2024-03-06T08:41:49;6.8;98
74458;SHT31;62896;51.032;3.712;2024-03-06T08:45:09;6.8;98
74458;SHT31;62896;51.032;3.712;2024-03-06T08:48:29;7;98
74458;SHT31;62896;51.032;3.712;2024-03-06T08:51:49;7;98
74458;SHT31;62896;51.032;3.712;2024-03-06T08:55:09;7;98
74458;SHT31;62896;51.032;3.712;2024-03-06T08:58:29;7.2;97
74458;SHT31;62896;51.032;3.712;2024-03-06T09:01:51;7.2;97
74458;SHT31;62896;51.032;3.712;2024-03-06T09:05:09;7.2;97
74458;SHT31;62896;51.032;3.712;2024-03-06T09:08:29;7.5;97
74458;SHT31;62896;51.032;3.712;2024-03-06T09:11:49;7.5;97
74458;SHT31;62896;51.032;3.712;2024-03-06T09:15:09;7.5;97
74458;SHT31;62896;51.032;3.712;2024-03-06T09:18:29;7.7;96
74458;SHT31;62896;51.032;3.712;2024-03-06T09:21:49;7.7;96
74458;SHT31;62896;51.032;3.712;2024-03-06T09:25:09;7.7;96
74458;SHT31;62896;51.032;3.712;2024-03-06T09:28:29;7.9;95
74458;SHT31;62896;51.032;3.712;2024-03-06T09:31:49;7.9;95
74458;SHT31;62896;51.032;3.712;2024-03-06T09:35:09;7.9;95
74458;SHT31;62896;51.032;3.712;2024-03-06T09:38:29;8.4;94
74458;SHT31;62896;51.032;3.712;2024-03-06T09:41:49;8.4;94
74458;SHT31;62896;51.032;3.712;2024-03-06T09:45:09;8.4;94
74458;SHT31;62896;51.032;3.712;2024-03-06T09:48:29;8.8;91
74458;SHT31;62896;51.032;3.712;2024-03-06T09:51:49;8.8;91
74458;SHT31;62896;51.032;3.712;2024-03-06T09:55:09;8.8;91
74458;SHT31;62896;51.032;3.712;2024-03-06T09:58:29;8.9;91
74458;SHT31;62896;51.032;3.712;2024-03-06T10:01:49;8.9;91
74458;SHT31;62896;51.032;3.712;2024-03-06T10:05:20;8.9;91
74458;SHT31;62896;51.032;3.712;2024-03-06T10:08:29;9;90
74458;SHT31;62896;51.032;3.712;2024-03-06T10:11:49;9;90
74458;SHT31;62896;51.032;3.712;2024-03-06T10:15:09;9;90
74458;SHT31;62896;51.032;3.712;2024-03-06T10:18:29;9;91
74458;SHT31;62896;51.032;3.712;2024-03-06T10:21:49;9;91
74458;SHT31;62896;51.032;3.712;2024-03-06T10:25:09;9;91
74458;SHT31;62896;51.032;3.712;2024-03-06T10:28:29;9.1;90
74458;SHT31;62896;51.032;3.712;2024-03-06T10:31:49;9.1;90
74458;SHT31;62896;51.032;3.712;2024-03-06T10:35:17;9.1;90
74458;SHT31;62896;51.032;3.712;2024-03-06T10:38:29;9.3;90
74458;SHT31;62896;51.032;3.712;2024-03-06T10:41:51;9.3;90
74458;SHT31;62896;51.032;3.712;2024-03-06T10:45:09;9.3;90
74458;SHT31;62896;51.032;3.712;2024-03-06T10:48:29;10;87
74458;SHT31;62896;51.032;3.712;2024-03-06T10:51:49;10;87
74458;SHT31;62896;51.032;3.712;2024-03-06T10:55:09;10;87
74458;SHT31;62896;51.032;3.712;2024-03-06T10:58:29;10.8;84
74458;SHT31;62896;51.032;3.712;2024-03-06T11:01:49;10.8;84
74458;SHT31;62896;51.032;3.712;2024-03-06T11:05:09;10.8;84
74458;SHT31;62896;51.032;3.712;2024-03-06T11:08:29;11.4;81
74458;SHT31;62896;51.032;3.712;2024-03-06T11:11:49;11.4;81
74458;SHT31;62896;51.032;3.712;2024-03-06T11:15:09;11.4;81
74458;SHT31;62896;51.032;3.712;2024-03-06T11:18:44;11.9;78
74458;SHT31;62896;51.032;3.712;2024-03-06T11:21:49;11.9;78
74458;SHT31;62896;51.032;3.712;2024-03-06T11:25:09;11.9;78
74458;SHT31;62896;51.032;3.712;2024-03-06T11:28:29;12;76
74458;SHT31;62896;51.032;3.712;2024-03-06T11:32:06;12;76
74458;SHT31;62896;51.032;3.712;2024-03-06T11:35:09;12;76
74458;SHT31;62896;51.032;3.712;2024-03-06T11:38:29;11.6;76
74458;SHT31;62896;51.032;3.712;2024-03-06T11:41:50;11.6;76
74458;SHT31;62896;51.032;3.712;2024-03-06T11:45:12;11.6;76
74458;SHT31;62896;51.032;3.712;2024-03-06T11:48:29;12.4;73
74458;SHT31;62896;51.032;3.712;2024-03-06T11:51:49;12.4;73
74458;SHT31;62896;51.032;3.712;2024-03-06T11:55:09;12.4;73
74458;SHT31;62896;51.032;3.712;2024-03-06T11:58:29;13.3;70
74458;SHT31;62896;51.032;3.712;2024-03-06T12:01:49;13.3;70
74458;SHT31;62896;51.032;3.712;2024-03-06T12:05:09;13.3;70
74458;SHT31;62896;51.032;3.712;2024-03-06T12:08:29;13.5;67
74458;SHT31;62896;51.032;3.712;2024-03-06T12:11:49;13.5;67
74458;SHT31;62896;51.032;3.712;2024-03-06T12:15:09;13.5;67
74458;SHT31;62896;51.032;3.712;2024-03-06T12:18:29;13.2;67
74458;SHT31;62896;51.032;3.712;2024-03-06T12:21:49;13.2;67
74458;SHT31;62896;51.032;3.712;2024-03-06T12:25:09;13.2;67
74458;SHT31;62896;51.032;3.712;2024-03-06T12:28:29;13.6;64
74458;SHT31;62896;51.032;3.712;2024-03-06T12:31:49;13.6;64
74458;SHT31;62896;51.032;3.712;2024-03-06T12:35:09;13.6;64
74458;SHT31;62896;51.032;3.712;2024-03-06T12:38:29;13.5;66
74458;SHT31;62896;51.032;3.712;2024-03-06T12:41:49;13.5;66
74458;SHT31;62896;51.032;3.712;2024-03-06T12:45:09;13.5;66
74458;SHT31;62896;51.032;3.712;2024-03-06T12:48:29;15;61
74458;SHT31;62896;51.032;3.712;2024-03-06T12:51:49;15;61
74458;SHT31;62896;51.032;3.712;2024-03-06T12:55:09;15;61
74458;SHT31;62896;51.032;3.712;2024-03-06T12:58:29;15.5;57
74458;SHT31;62896;51.032;3.712;2024-03-06T13:01:49;15.5;57
74458;SHT31;62896;51.032;3.712;2024-03-06T13:05:09;15.5;57
74458;SHT31;62896;51.032;3.712;2024-03-06T13:08:29;15.2;57
74458;SHT31;62896;51.032;3.712;2024-03-06T13:11:49;15.2;57
74458;SHT31;62896;51.032;3.712;2024-03-06T13:15:09;15.2;57
74458;SHT31;62896;51.032;3.712;2024-03-06T13:18:29;14.9;58
74458;SHT31;62896;51.032;3.712;2024-03-06T13:21:49;14.9;58
74458;SHT31;62896;51.032;3.712;2024-03-06T13:25:09;14.9;58
74458;SHT31;62896;51.032;3.712;2024-03-06T13:28:29;16.4;56
74458;SHT31;62896;51.032;3.712;2024-03-06T13:31:49;16.4;56
74458;SHT31;62896;51.032;3.712;2024-03-06T13:35:09;16.4;56
74458;SHT31;62896;51.032;3.712;2024-03-06T13:38:29;16.9;52
74458;SHT31;62896;51.032;3.712;2024-03-06T13:41:49;16.9;52
74458;SHT31;62896;51.032;3.712;2024-03-06T13:45:09;16.9;52
74458;SHT31;62896;51.032;3.712;2024-03-06T13:48:29;16.4;51
74458;SHT31;62896;51.032;3.712;2024-03-06T13:51:49;16.4;51
74458;SHT31;62896;51.032;3.712;2024-03-06T13:55:09;16.4;51
74458;SHT31;62896;51.032;3.712;2024-03-06T13:58:29;15.1;53
74458;SHT31;62896;51.032;3.712;2024-03-06T14:01:49;15.1;53
74458;SHT31;62896;51.032;3.712;2024-03-06T14:05:09;15.1;53
74458;SHT31;62896;51.032;3.712;2024-03-06T14:08:29;16.1;52
74458;SHT31;62896;51.032;3.712;2024-03-06T14:11:49;16.1;52
74458;SHT31;62896;51.032;3.712;2024-03-06T14:15:09;16.1;52
74458;SHT31;62896;51.032;3.712;2024-03-06T14:18:29;15.9;55
74458;SHT31;62896;51.032;3.712;2024-03-06T14:21:49;15.9;55
74458;SHT31;62896;51.032;3.712;2024-03-06T14:25:09;15.9;55
74458;SHT31;62896;51.032;3.712;2024-03-06T14:28:29;14.7;57
74458;SHT31;62896;51.032;3.712;2024-03-06T14:31:49;14.7;57
74458;SHT31;62896;51.032;3.712;2024-03-06T14:35:09;14.7;57
74458;SHT31;62896;51.032;3.712;2024-03-06T14:38:29;15.4;55
74458;SHT31;62896;51.032;3.712;2024-03-06T14:41:49;15.4;55
74458;SHT31;62896;51.032;3.712;2024-03-06T14:45:09;15.4;55
74458;SHT31;62896;51.032;3.712;2024-03-06T14:48:29;14.2;57
74458;SHT31;62896;51.032;3.712;2024-03-06T14:51:49;14.2;57
74458;SHT31;62896;51.032;3.712;2024-03-06T14:55:09;14.2;57
74458;SHT31;62896;51.032;3.712;2024-03-06T14:58:29;13.1;62
74458;SHT31;62896;51.032;3.712;2024-03-06T15:01:49;13.1;62
74458;SHT31;62896;51.032;3.712;2024-03-06T15:05:09;13.1;62
74458;SHT31;62896;51.032;3.712;2024-03-06T15:08:29;12.8;63
74458;SHT31;62896;51.032;3.712;2024-03-06T15:11:49;12.8;63
74458;SHT31;62896;51.032;3.712;2024-03-06T15:15:09;12.8;63
74458;SHT31;62896;51.032;3.712;2024-03-06T15:18:29;12.8;63
74458;SHT31;62896;51.032;3.712;2024-03-06T15:21:49;12.8;63
74458;SHT31;62896;51.032;3.712;2024-03-06T15:25:09;12.8;63
74458;SHT31;62896;51.032;3.712;2024-03-06T15:28:29;15.8;54
74458;SHT31;62896;51.032;3.712;2024-03-06T15:31:49;15.8;54
74458;SHT31;62896;51.032;3.712;2024-03-06T15:35:09;15.8;54
74458;SHT31;62896;51.032;3.712;2024-03-06T15:38:29;17.3;48
74458;SHT31;62896;51.032;3.712;2024-03-06T15:41:49;17.3;48
74458;SHT31;62896;51.032;3.712;2024-03-06T15:45:10;17.3;48
74458;SHT31;62896;51.032;3.712;2024-03-06T15:48:29;14.7;52
74458;SHT31;62896;51.032;3.712;2024-03-06T15:51:49;14.7;52
74458;SHT31;62896;51.032;3.712;2024-03-06T15:55:09;14.7;52
74458;SHT31;62896;51.032;3.712;2024-03-06T15:58:29;13.6;56
74458;SHT31;62896;51.032;3.712;2024-03-06T16:01:49;13.6;56
74458;SHT31;62896;51.032;3.712;2024-03-06T16:05:09;13.6;56
74458;SHT31;62896;51.032;3.712;2024-03-06T16:08:29;13.5;55
74458;SHT31;62896;51.032;3.712;2024-03-06T16:11:49;13.5;55
74458;SHT31;62896;51.032;3.712;2024-03-06T16:15:10;13.5;55
74458;SHT31;62896;51.032;3.712;2024-03-06T16:18:29;13.1;57
74458;SHT31;62896;51.032;3.712;2024-03-06T16:21:49;13.1;57
74458;SHT31;62896;51.032;3.712;2024-03-06T16:25:09;13.1;57
74458;SHT31;62896;51.032;3.712;2024-03-06T16:28:29;13.1;58
74458;SHT31;62896;51.032;3.712;2024-03-06T16:31:49;13.1;58
74458;SHT31;62896;51.032;3.712;2024-03-06T16:35:09;13.1;58
74458;SHT31;62896;51.032;3.712;2024-03-06T16:38:29;13;58
74458;SHT31;62896;51.032;3.712;2024-03-06T16:41:49;13;58
74458;SHT31;62896;51.032;3.712;2024-03-06T16:45:09;13;58
74458;SHT31;62896;51.032;3.712;2024-03-06T16:48:29;13;58
74458;SHT31;62896;51.032;3.712;2024-03-06T16:51:49;13;58
74458;SHT31;62896;51.032;3.712;2024-03-06T16:55:09;13;58
74458;SHT31;62896;51.032;3.712;2024-03-06T16:58:29;12.9;59
74458;SHT31;62896;51.032;3.712;2024-03-06T17:01:49;12.9;59
74458;SHT31;62896;51.032;3.712;2024-03-06T17:05:09;12.9;59
74458;SHT31;62896;51.032;3.712;2024-03-06T17:08:29;12.6;60
74458;SHT31;62896;51.032;3.712;2024-03-06T17:11:49;12.6;60
74458;SHT31;62896;51.032;3.712;2024-03-06T17:15:09;12.6;60
74458;SHT31;62896;51.032;3.712;2024-03-06T17:18:29;12.1;61
74458;SHT31;62896;51.032;3.712;2024-03-06T17:21:49;12.1;61
74458;SHT31;62896;51.032;3.712;2024-03-06T17:25:09;12.1;61
74458;SHT31;62896;51.032;3.712;2024-03-06T17:28:29;12;62
74458;SHT31;62896;51.032;3.712;2024-03-06T17:31:49;12;62
74458;SHT31;62896;51.032;3.712;2024-03-06T17:35:09;12;62
74458;SHT31;62896;51.032;3.712;2024-03-06T17:38:29;11.7;64
74458;SHT31;62896;51.032;3.712;2024-03-06T17:41:49;11.7;64
74458;SHT31;62896;51.032;3.712;2024-03-06T17:45:09;11.7;64
74458;SHT31;62896;51.032;3.712;2024-03-06T17:48:29;11.6;66
74458;SHT31;62896;51.032;3.712;2024-03-06T17:51:49;11.6;66
74458;SHT31;62896;51.032;3.712;2024-03-06T17:55:09;11.6;66
74458;SHT31;62896;51.032;3.712;2024-03-06T17:58:29;11.4;67
74458;SHT31;62896;51.032;3.712;2024-03-06T18:01:49;11.4;67
74458;SHT31;62896;51.032;3.712;2024-03-06T18:05:09;11.4;67
74458;SHT31;62896;51.032;3.712;2024-03-06T18:08:29;11.3;68
74458;SHT31;62896;51.032;3.712;2024-03-06T18:11:49;11.3;68
74458;SHT31;62896;51.032;3.712;2024-03-06T18:15:09;11.3;68
74458;SHT31;62896;51.032;3.712;2024-03-06T18:18:29;11.2;69
74458;SHT31;62896;51.032;3.712;2024-03-06T18:21:49;11.2;69
74458;SHT31;62896;51.032;3.712;2024-03-06T18:25:09;11.2;69
74458;SHT31;62896;51.032;3.712;2024-03-06T18:28:29;11;71
74458;SHT31;62896;51.032;3.712;2024-03-06T18:31:49;11;71
74458;SHT31;62896;51.032;3.712;2024-03-06T18:35:09;11;71
74458;SHT31;62896;51.032;3.712;2024-03-06T18:38:31;10.7;73
74458;SHT31;62896;51.032;3.712;2024-03-06T18:41:49;10.7;73
74458;SHT31;62896;51.032;3.712;2024-03-06T18:45:09;10.7;73
74458;SHT31;62896;51.032;3.712;2024-03-06T18:48:29;10.3;78
74458;SHT31;62896;51.032;3.712;2024-03-06T18:51:49;10.3;78
74458;SHT31;62896;51.032;3.712;2024-03-06T18:55:09;10.3;78
74458;SHT31;62896;51.032;3.712;2024-03-06T18:58:29;10.1;80
74458;SHT31;62896;51.032;3.712;2024-03-06T19:01:49;10.1;80
74458;SHT31;62896;51.032;3.712;2024-03-06T19:05:09;10.1;80
74458;SHT31;62896;51.032;3.712;2024-03-06T19:08:29;9.9;82
74458;SHT31;62896;51.032;3.712;2024-03-06T19:11:49;9.9;82
74458;SHT31;62896;51.032;3.712;2024-03-06T19:15:09;9.9;82
74458;SHT31;62896;51.032;3.712;2024-03-06T19:18:29;9.8;83
74458;SHT31;62896;51.032;3.712;2024-03-06T19:21:49;9.8;83
74458;SHT31;62896;51.032;3.712;2024-03-06T19:25:09;9.8;83
74458;SHT31;62896;51.032;3.712;2024-03-06T19:28:29;9.6;83
74458;SHT31;62896;51.032;3.712;2024-03-06T19:31:49;9.6;83
74458;SHT31;62896;51.032;3.712;2024-03-06T19:35:09;9.6;83
74458;SHT31;62896;51.032;3.712;2024-03-06T19:38:29;9.5;84
74458;SHT31;62896;51.032;3.712;2024-03-06T19:41:49;9.5;84
74458;SHT31;62896;51.032;3.712;2024-03-06T19:45:09;9.5;84
74458;SHT31;62896;51.032;3.712;2024-03-06T19:48:29;9.3;84
74458;SHT31;62896;51.032;3.712;2024-03-06T19:51:49;9.3;84
74458;SHT31;62896;51.032;3.712;2024-03-06T19:55:09;9.3;84
74458;SHT31;62896;51.032;3.712;2024-03-06T19:58:29;9.2;84
74458;SHT31;62896;51.032;3.712;2024-03-06T20:01:49;9.2;84
74458;SHT31;62896;51.032;3.712;2024-03-06T20:05:09;9.2;84
74458;SHT31;62896;51.032;3.712;2024-03-06T20:08:29;9.1;84
74458;SHT31;62896;51.032;3.712;2024-03-06T20:11:49;9.1;84
74458;SHT31;62896;51.032;3.712;2024-03-06T20:15:09;9.1;84
74458;SHT31;62896;51.032;3.712;2024-03-06T20:18:29;9;85
74458;SHT31;62896;51.032;3.712;2024-03-06T20:21:49;9;85
74458;SHT31;62896;51.032;3.712;2024-03-06T20:25:09;9;85
74458;SHT31;62896;51.032;3.712;2024-03-06T20:28:29;9;85
74458;SHT31;62896;51.032;3.712;2024-03-06T20:31:49;9;85
74458;SHT31;62896;51.032;3.712;2024-03-06T20:35:10;9;85
74458;SHT31;62896;51.032;3.712;2024-03-06T20:38:29;8.9;86
74458;SHT31;62896;51.032;3.712;2024-03-06T20:41:49;8.9;86
74458;SHT31;62896;51.032;3.712;2024-03-06T20:45:09;8.9;86
74458;SHT31;62896;51.032;3.712;2024-03-06T20:48:29;8.7;87
74458;SHT31;62896;51.032;3.712;2024-03-06T20:51:49;8.7;87
74458;SHT31;62896;51.032;3.712;2024-03-06T20:55:09;8.7;87
74458;SHT31;62896;51.032;3.712;2024-03-06T20:58:29;8.5;88
74458;SHT31;62896;51.032;3.712;2024-03-06T21:01:49;8.5;88
74458;SHT31;62896;51.032;3.712;2024-03-06T21:05:09;8.5;88
74458;SHT31;62896;51.032;3.712;2024-03-06T21:08:29;8.5;88
74458;SHT31;62896;51.032;3.712;2024-03-06T21:11:49;8.5;88
74458;SHT31;62896;51.032;3.712;2024-03-06T21:15:09;8.5;88
74458;SHT31;62896;51.032;3.712;2024-03-06T21:18:29;8.5;88
74458;SHT31;62896;51.032;3.712;2024-03-06T21:21:49;8.5;88
74458;SHT31;62896;51.032;3.712;2024-03-06T21:25:10;8.5;88
74458;SHT31;62896;51.032;3.712;2024-03-06T21:28:29;8.4;88
74458;SHT31;62896;51.032;3.712;2024-03-06T21:31:49;8.4;88
74458;SHT31;62896;51.032;3.712;2024-03-06T21:35:09;8.4;88
74458;SHT31;62896;51.032;3.712;2024-03-06T21:38:29;8.4;89
74458;SHT31;62896;51.032;3.712;2024-03-06T21:41:49;8.4;89
74458;SHT31;62896;51.032;3.712;2024-03-06T21:45:09;8.4;89
74458;SHT31;62896;51.032;3.712;2024-03-06T21:48:29;8.3;89
74458;SHT31;62896;51.032;3.712;2024-03-06T21:51:49;8.3;89
74458;SHT31;62896;51.032;3.712;2024-03-06T21:55:09;8.3;89
74458;SHT31;62896;51.032;3.712;2024-03-06T21:58:29;8.4;89
74458;SHT31;62896;51.032;3.712;2024-03-06T22:01:49;8.4;89
74458;SHT31;62896;51.032;3.712;2024-03-06T22:05:09;8.4;89
74458;SHT31;62896;51.032;3.712;2024-03-06T22:08:29;8.4;88
74458;SHT31;62896;51.032;3.712;2024-03-06T22:11:49;8.4;88
74458;SHT31;62896;51.032;3.712;2024-03-06T22:15:09;8.4;88
74458;SHT31;62896;51.032;3.712;2024-03-06T22:18:29;8.4;88
74458;SHT31;62896;51.032;3.712;2024-03-06T22:21:49;8.4;88
74458;SHT31;62896;51.032;3.712;2024-03-06T22:25:09;8.4;88
74458;SHT31;62896;51.032;3.712;2024-03-06T22:28:29;8.5;87
74458;SHT31;62896;51.032;3.712;2024-03-06T22:31:49;8.5;87
74458;SHT31;62896;51.032;3.712;2024-03-06T22:35:09;8.5;87
74458;SHT31;62896;51.032;3.712;2024-03-06T22:38:29;8.4;86
74458;SHT31;62896;51.032;3.712;2024-03-06T22:41:49;8.4;86
74458;SHT31;62896;51.032;3.712;2024-03-06T22:45:11;8.4;86